sensor_id;sensor_type;location;lat;lon;timestamp;P1;durP1;ratioP1;P2;durP2;ratioP2
6533;SDS011;3300;42.698;23.332;2023-09-08T00:02:09;10.93;;;9.83;;
6533;SDS011;3300;42.698;23.332;2023-09-08T00:04:36;10.30;;;9.30;;
6533;SDS011;3300;42.698;23.332;2023-09-08T00:07:03;10.07;;;9.17;;
6533;SDS011;3300;42.698;23.332;2023-09-08T00:09:30;10.30;;;9.30;;
6533;SDS011;3300;42.698;23.332;2023-09-08T00:11:58;10.17;;;9.17;;
6533;SDS011;3300;42.698;23.332;2023-09-08T00:14:25;9.83;;;8.67;;
6533;SDS011;3300;42.698;23.332;2023-09-08T00:16:51;10.53;;;9.50;;
6533;SDS011;3300;42.698;23.332;2023-09-08T00:19:19;10.47;;;9.47;;
6533;SDS011;3300;42.698;23.332;2023-09-08T00:21:46;10.33;;;9.30;;
6533;SDS011;3300;42.698;23.332;2023-09-08T00:24:13;10.70;;;9.60;;
6533;SDS011;3300;42.698;23.332;2023-09-08T00:26:39;9.90;;;9.00;;
6533;SDS011;3300;42.698;23.332;2023-09-08T00:29:07;10.20;;;9.20;;
6533;SDS011;3300;42.698;23.332;2023-09-08T00:31:34;9.90;;;9.00;;
6533;SDS011;3300;42.698;23.332;2023-09-08T00:34:01;10.47;;;9.47;;
6533;SDS011;3300;42.698;23.332;2023-09-08T00:36:27;9.77;;;8.87;;
6533;SDS011;3300;42.698;23.332;2023-09-08T00:38:54;10.20;;;9.20;;
6533;SDS011;3300;42.698;23.332;2023-09-08T00:41:21;10.37;;;9.37;;
6533;SDS011;3300;42.698;23.332;2023-09-08T00:43:48;11.00;;;9.90;;
6533;SDS011;3300;42.698;23.332;2023-09-08T00:46:16;10.00;;;9.00;;
6533;SDS011;3300;42.698;23.332;2023-09-08T00:48:43;10.50;;;9.03;;
6533;SDS011;3300;42.698;23.332;2023-09-08T00:51:10;10.73;;;9.63;;
6533;SDS011;3300;42.698;23.332;2023-09-08T00:53:37;10.13;;;9.13;;
6533;SDS011;3300;42.698;23.332;2023-09-08T00:56:04;10.60;;;9.50;;
6533;SDS011;3300;42.698;23.332;2023-09-08T00:58:31;10.77;;;9.70;;
6533;SDS011;3300;42.698;23.332;2023-09-08T01:00:58;10.43;;;9.43;;
6533;SDS011;3300;42.698;23.332;2023-09-08T01:03:26;10.30;;;9.30;;
6533;SDS011;3300;42.698;23.332;2023-09-08T01:05:53;10.10;;;9.10;;
6533;SDS011;3300;42.698;23.332;2023-09-08T01:08:39;10.80;;;9.50;;
6533;SDS011;3300;42.698;23.332;2023-09-08T01:11:06;11.00;;;9.60;;
6533;SDS011;3300;42.698;23.332;2023-09-08T01:13:33;10.50;;;9.40;;
6533;SDS011;3300;42.698;23.332;2023-09-08T01:16:00;10.47;;;9.47;;
6533;SDS011;3300;42.698;23.332;2023-09-08T01:18:28;10.60;;;9.60;;
6533;SDS011;3300;42.698;23.332;2023-09-08T01:21:01;10.67;;;9.67;;
6533;SDS011;3300;42.698;23.332;2023-09-08T01:23:40;10.23;;;9.23;;
6533;SDS011;3300;42.698;23.332;2023-09-08T01:26:22;10.00;;;9.00;;
6533;SDS011;3300;42.698;23.332;2023-09-08T01:28:53;10.87;;;9.77;;
6533;SDS011;3300;42.698;23.332;2023-09-08T01:31:21;10.07;;;9.07;;
6533;SDS011;3300;42.698;23.332;2023-09-08T01:33:48;10.20;;;9.10;;
6533;SDS011;3300;42.698;23.332;2023-09-08T01:36:15;10.10;;;9.10;;
6533;SDS011;3300;42.698;23.332;2023-09-08T01:38:42;9.70;;;8.80;;
6533;SDS011;3300;42.698;23.332;2023-09-08T01:41:08;10.57;;;9.47;;
6533;SDS011;3300;42.698;23.332;2023-09-08T01:43:37;10.57;;;9.47;;
6533;SDS011;3300;42.698;23.332;2023-09-08T01:46:03;10.13;;;9.03;;
6533;SDS011;3300;42.698;23.332;2023-09-08T01:48:30;10.27;;;9.27;;
6533;SDS011;3300;42.698;23.332;2023-09-08T01:50:57;10.47;;;9.37;;
6533;SDS011;3300;42.698;23.332;2023-09-08T01:53:23;10.63;;;9.53;;
6533;SDS011;3300;42.698;23.332;2023-09-08T01:55:50;10.30;;;9.30;;
6533;SDS011;3300;42.698;23.332;2023-09-08T01:58:17;9.50;;;8.60;;
6533;SDS011;3300;42.698;23.332;2023-09-08T02:00:49;10.20;;;9.20;;
6533;SDS011;3300;42.698;23.332;2023-09-08T02:03:16;10.80;;;9.70;;
6533;SDS011;3300;42.698;23.332;2023-09-08T02:05:42;10.50;;;9.50;;
6533;SDS011;3300;42.698;23.332;2023-09-08T02:08:10;10.03;;;9.03;;
6533;SDS011;3300;42.698;23.332;2023-09-08T02:10:39;10.10;;;9.10;;
6533;SDS011;3300;42.698;23.332;2023-09-08T02:13:05;10.50;;;9.50;;
6533;SDS011;3300;42.698;23.332;2023-09-08T02:15:34;10.50;;;9.50;;
6533;SDS011;3300;42.698;23.332;2023-09-08T02:18:02;10.03;;;9.03;;
6533;SDS011;3300;42.698;23.332;2023-09-08T02:20:29;9.90;;;8.90;;
6533;SDS011;3300;42.698;23.332;2023-09-08T02:22:57;10.20;;;9.20;;
6533;SDS011;3300;42.698;23.332;2023-09-08T02:25:30;10.70;;;9.60;;
6533;SDS011;3300;42.698;23.332;2023-09-08T02:27:56;10.57;;;9.57;;
6533;SDS011;3300;42.698;23.332;2023-09-08T02:30:23;10.67;;;9.63;;
6533;SDS011;3300;42.698;23.332;2023-09-08T02:32:50;10.60;;;9.50;;
6533;SDS011;3300;42.698;23.332;2023-09-08T02:35:18;9.67;;;8.77;;
6533;SDS011;3300;42.698;23.332;2023-09-08T02:37:45;10.47;;;9.40;;
6533;SDS011;3300;42.698;23.332;2023-09-08T02:40:12;10.63;;;9.53;;
6533;SDS011;3300;42.698;23.332;2023-09-08T02:42:38;10.13;;;9.13;;
6533;SDS011;3300;42.698;23.332;2023-09-08T02:45:05;10.27;;;9.27;;
6533;SDS011;3300;42.698;23.332;2023-09-08T02:47:33;9.60;;;8.70;;
6533;SDS011;3300;42.698;23.332;2023-09-08T02:49:59;10.50;;;9.50;;
6533;SDS011;3300;42.698;23.332;2023-09-08T02:52:28;10.13;;;9.13;;
6533;SDS011;3300;42.698;23.332;2023-09-08T02:54:55;9.90;;;8.90;;
6533;SDS011;3300;42.698;23.332;2023-09-08T02:57:21;9.70;;;8.80;;
6533;SDS011;3300;42.698;23.332;2023-09-08T02:59:49;10.43;;;9.43;;
6533;SDS011;3300;42.698;23.332;2023-09-08T03:02:16;10.43;;;9.43;;
6533;SDS011;3300;42.698;23.332;2023-09-08T03:04:43;10.33;;;9.33;;
6533;SDS011;3300;42.698;23.332;2023-09-08T03:07:10;10.50;;;9.50;;
6533;SDS011;3300;42.698;23.332;2023-09-08T03:09:38;10.20;;;9.20;;
6533;SDS011;3300;42.698;23.332;2023-09-08T03:12:04;10.40;;;9.40;;
6533;SDS011;3300;42.698;23.332;2023-09-08T03:14:31;10.77;;;9.67;;
6533;SDS011;3300;42.698;23.332;2023-09-08T03:16:58;10.30;;;9.30;;
6533;SDS011;3300;42.698;23.332;2023-09-08T03:19:25;10.13;;;9.13;;
6533;SDS011;3300;42.698;23.332;2023-09-08T03:21:52;9.40;;;8.50;;
6533;SDS011;3300;42.698;23.332;2023-09-08T03:24:19;10.37;;;9.37;;
6533;SDS011;3300;42.698;23.332;2023-09-08T03:26:47;10.40;;;9.37;;
6533;SDS011;3300;42.698;23.332;2023-09-08T03:29:13;10.13;;;9.13;;
6533;SDS011;3300;42.698;23.332;2023-09-08T03:31:40;10.30;;;9.30;;
6533;SDS011;3300;42.698;23.332;2023-09-08T03:34:07;10.07;;;9.07;;
6533;SDS011;3300;42.698;23.332;2023-09-08T03:36:33;10.07;;;9.07;;
6533;SDS011;3300;42.698;23.332;2023-09-08T03:39:02;10.67;;;9.57;;
6533;SDS011;3300;42.698;23.332;2023-09-08T03:41:29;10.50;;;9.50;;
6533;SDS011;3300;42.698;23.332;2023-09-08T03:43:57;10.30;;;9.20;;
6533;SDS011;3300;42.698;23.332;2023-09-08T03:46:23;10.50;;;9.50;;
6533;SDS011;3300;42.698;23.332;2023-09-08T03:48:50;10.13;;;9.13;;
6533;SDS011;3300;42.698;23.332;2023-09-08T03:51:17;10.90;;;9.70;;
6533;SDS011;3300;42.698;23.332;2023-09-08T03:53:44;10.37;;;9.37;;
6533;SDS011;3300;42.698;23.332;2023-09-08T03:56:11;9.77;;;8.87;;
6533;SDS011;3300;42.698;23.332;2023-09-08T03:58:37;10.50;;;9.50;;
6533;SDS011;3300;42.698;23.332;2023-09-08T04:01:05;10.27;;;9.27;;
6533;SDS011;3300;42.698;23.332;2023-09-08T04:03:32;9.80;;;8.80;;
6533;SDS011;3300;42.698;23.332;2023-09-08T04:05:59;10.10;;;9.10;;
6533;SDS011;3300;42.698;23.332;2023-09-08T04:08:25;10.17;;;9.17;;
6533;SDS011;3300;42.698;23.332;2023-09-08T04:10:52;10.60;;;9.50;;
6533;SDS011;3300;42.698;23.332;2023-09-08T04:13:19;10.50;;;9.40;;
6533;SDS011;3300;42.698;23.332;2023-09-08T04:15:45;10.30;;;9.30;;
6533;SDS011;3300;42.698;23.332;2023-09-08T04:18:13;9.90;;;8.97;;
6533;SDS011;3300;42.698;23.332;2023-09-08T04:20:40;9.57;;;8.57;;
6533;SDS011;3300;42.698;23.332;2023-09-08T04:23:07;9.63;;;8.67;;
6533;SDS011;3300;42.698;23.332;2023-09-08T04:25:33;9.93;;;8.93;;
6533;SDS011;3300;42.698;23.332;2023-09-08T04:28:01;9.77;;;8.77;;
6533;SDS011;3300;42.698;23.332;2023-09-08T04:30:28;10.47;;;9.43;;
6533;SDS011;3300;42.698;23.332;2023-09-08T04:32:55;9.60;;;8.60;;
6533;SDS011;3300;42.698;23.332;2023-09-08T04:35:23;9.97;;;8.97;;
6533;SDS011;3300;42.698;23.332;2023-09-08T04:37:49;10.37;;;9.37;;
6533;SDS011;3300;42.698;23.332;2023-09-08T04:40:16;9.90;;;8.90;;
6533;SDS011;3300;42.698;23.332;2023-09-08T04:42:43;10.53;;;9.43;;
6533;SDS011;3300;42.698;23.332;2023-09-08T04:45:10;9.63;;;8.73;;
6533;SDS011;3300;42.698;23.332;2023-09-08T04:47:38;9.97;;;8.97;;
6533;SDS011;3300;42.698;23.332;2023-09-08T04:50:05;9.63;;;8.73;;
6533;SDS011;3300;42.698;23.332;2023-09-08T04:52:34;10.70;;;9.60;;
6533;SDS011;3300;42.698;23.332;2023-09-08T04:55:01;10.17;;;9.17;;
6533;SDS011;3300;42.698;23.332;2023-09-08T04:57:28;10.33;;;9.33;;
6533;SDS011;3300;42.698;23.332;2023-09-08T04:59:55;10.10;;;9.10;;
6533;SDS011;3300;42.698;23.332;2023-09-08T05:02:21;10.10;;;9.10;;
6533;SDS011;3300;42.698;23.332;2023-09-08T05:04:48;10.03;;;9.03;;
6533;SDS011;3300;42.698;23.332;2023-09-08T05:07:15;10.00;;;9.00;;
6533;SDS011;3300;42.698;23.332;2023-09-08T05:09:44;9.93;;;8.93;;
6533;SDS011;3300;42.698;23.332;2023-09-08T05:12:11;10.50;;;9.40;;
6533;SDS011;3300;42.698;23.332;2023-09-08T05:14:37;10.10;;;9.10;;
6533;SDS011;3300;42.698;23.332;2023-09-08T05:17:04;9.87;;;8.90;;
6533;SDS011;3300;42.698;23.332;2023-09-08T05:19:31;10.17;;;9.17;;
6533;SDS011;3300;42.698;23.332;2023-09-08T05:21:57;9.80;;;8.90;;
6533;SDS011;3300;42.698;23.332;2023-09-08T05:24:24;10.27;;;9.20;;
6533;SDS011;3300;42.698;23.332;2023-09-08T05:26:53;9.83;;;8.90;;
6533;SDS011;3300;42.698;23.332;2023-09-08T05:29:20;10.63;;;9.53;;
6533;SDS011;3300;42.698;23.332;2023-09-08T05:31:46;10.43;;;9.33;;
6533;SDS011;3300;42.698;23.332;2023-09-08T05:34:13;10.70;;;9.67;;
6533;SDS011;3300;42.698;23.332;2023-09-08T05:36:40;9.93;;;8.93;;
6533;SDS011;3300;42.698;23.332;2023-09-08T05:39:07;9.97;;;8.97;;
6533;SDS011;3300;42.698;23.332;2023-09-08T05:41:35;9.87;;;8.93;;
6533;SDS011;3300;42.698;23.332;2023-09-08T05:44:03;9.67;;;8.77;;
6533;SDS011;3300;42.698;23.332;2023-09-08T05:46:30;10.40;;;9.30;;
6533;SDS011;3300;42.698;23.332;2023-09-08T05:48:57;9.90;;;8.90;;
6533;SDS011;3300;42.698;23.332;2023-09-08T05:51:24;10.47;;;9.47;;
6533;SDS011;3300;42.698;23.332;2023-09-08T05:53:50;10.67;;;9.57;;
6533;SDS011;3300;42.698;23.332;2023-09-08T05:56:18;10.43;;;9.37;;
6533;SDS011;3300;42.698;23.332;2023-09-08T05:58:44;10.07;;;9.07;;
6533;SDS011;3300;42.698;23.332;2023-09-08T06:01:14;10.17;;;9.17;;
6533;SDS011;3300;42.698;23.332;2023-09-08T06:03:41;10.53;;;9.53;;
6533;SDS011;3300;42.698;23.332;2023-09-08T06:06:08;10.70;;;9.60;;
6533;SDS011;3300;42.698;23.332;2023-09-08T06:08:34;10.13;;;9.13;;
6533;SDS011;3300;42.698;23.332;2023-09-08T06:11:01;10.03;;;9.03;;
6533;SDS011;3300;42.698;23.332;2023-09-08T06:13:28;9.40;;;8.53;;
6533;SDS011;3300;42.698;23.332;2023-09-08T06:15:55;10.60;;;9.60;;
6533;SDS011;3300;42.698;23.332;2023-09-08T06:18:23;10.30;;;9.30;;
6533;SDS011;3300;42.698;23.332;2023-09-08T06:20:49;10.37;;;9.37;;
6533;SDS011;3300;42.698;23.332;2023-09-08T06:23:19;10.00;;;9.00;;
6533;SDS011;3300;42.698;23.332;2023-09-08T06:25:46;10.80;;;9.70;;
6533;SDS011;3300;42.698;23.332;2023-09-08T06:28:13;10.07;;;9.07;;
6533;SDS011;3300;42.698;23.332;2023-09-08T06:30:40;10.40;;;9.40;;
6533;SDS011;3300;42.698;23.332;2023-09-08T06:33:07;9.97;;;8.97;;
6533;SDS011;3300;42.698;23.332;2023-09-08T06:35:35;9.83;;;8.87;;
6533;SDS011;3300;42.698;23.332;2023-09-08T06:38:02;9.20;;;8.30;;
6533;SDS011;3300;42.698;23.332;2023-09-08T06:40:29;9.90;;;9.00;;
6533;SDS011;3300;42.698;23.332;2023-09-08T06:42:56;9.67;;;8.77;;
6533;SDS011;3300;42.698;23.332;2023-09-08T06:45:23;9.77;;;8.83;;
6533;SDS011;3300;42.698;23.332;2023-09-08T06:47:49;9.80;;;8.80;;
6533;SDS011;3300;42.698;23.332;2023-09-08T06:50:19;10.27;;;9.10;;
6533;SDS011;3300;42.698;23.332;2023-09-08T06:52:48;10.10;;;9.10;;
6533;SDS011;3300;42.698;23.332;2023-09-08T06:55:15;10.20;;;9.20;;
6533;SDS011;3300;42.698;23.332;2023-09-08T06:57:41;10.10;;;9.10;;
6533;SDS011;3300;42.698;23.332;2023-09-08T07:00:08;10.20;;;9.20;;
6533;SDS011;3300;42.698;23.332;2023-09-08T07:02:36;11.10;;;9.97;;
6533;SDS011;3300;42.698;23.332;2023-09-08T07:05:03;9.43;;;8.53;;
6533;SDS011;3300;42.698;23.332;2023-09-08T07:07:32;10.27;;;9.20;;
6533;SDS011;3300;42.698;23.332;2023-09-08T07:10:01;9.80;;;8.80;;
6533;SDS011;3300;42.698;23.332;2023-09-08T07:12:29;10.00;;;8.70;;
6533;SDS011;3300;42.698;23.332;2023-09-08T07:14:56;9.30;;;8.40;;
6533;SDS011;3300;42.698;23.332;2023-09-08T07:17:22;9.97;;;8.97;;
6533;SDS011;3300;42.698;23.332;2023-09-08T07:19:49;10.20;;;9.20;;
6533;SDS011;3300;42.698;23.332;2023-09-08T07:22:16;10.00;;;9.00;;
6533;SDS011;3300;42.698;23.332;2023-09-08T07:24:43;10.60;;;9.50;;
6533;SDS011;3300;42.698;23.332;2023-09-08T07:27:12;9.70;;;8.80;;
6533;SDS011;3300;42.698;23.332;2023-09-08T07:29:39;9.83;;;8.83;;
6533;SDS011;3300;42.698;23.332;2023-09-08T07:32:06;10.17;;;9.17;;
6533;SDS011;3300;42.698;23.332;2023-09-08T07:34:33;9.40;;;8.50;;
6533;SDS011;3300;42.698;23.332;2023-09-08T07:37:00;9.13;;;8.23;;
6533;SDS011;3300;42.698;23.332;2023-09-08T07:39:27;10.17;;;9.17;;
6533;SDS011;3300;42.698;23.332;2023-09-08T07:41:53;10.20;;;9.10;;
6533;SDS011;3300;42.698;23.332;2023-09-08T07:44:22;9.43;;;8.53;;
6533;SDS011;3300;42.698;23.332;2023-09-08T07:46:49;9.60;;;8.70;;
6533;SDS011;3300;42.698;23.332;2023-09-08T07:49:16;9.80;;;8.90;;
6533;SDS011;3300;42.698;23.332;2023-09-08T07:51:43;9.47;;;8.47;;
6533;SDS011;3300;42.698;23.332;2023-09-08T07:54:10;9.57;;;8.67;;
6533;SDS011;3300;42.698;23.332;2023-09-08T07:56:37;10.10;;;9.10;;
6533;SDS011;3300;42.698;23.332;2023-09-08T07:59:05;9.90;;;8.90;;
6533;SDS011;3300;42.698;23.332;2023-09-08T08:01:33;10.00;;;9.00;;
6533;SDS011;3300;42.698;23.332;2023-09-08T08:04:00;9.47;;;8.57;;
6533;SDS011;3300;42.698;23.332;2023-09-08T08:06:28;10.17;;;9.17;;
6533;SDS011;3300;42.698;23.332;2023-09-08T08:08:55;10.00;;;9.00;;
6533;SDS011;3300;42.698;23.332;2023-09-08T08:11:22;10.53;;;9.43;;
6533;SDS011;3300;42.698;23.332;2023-09-08T08:13:50;9.63;;;8.63;;
6533;SDS011;3300;42.698;23.332;2023-09-08T08:16:17;9.80;;;8.80;;
6533;SDS011;3300;42.698;23.332;2023-09-08T08:18:46;9.93;;;9.00;;
6533;SDS011;3300;42.698;23.332;2023-09-08T08:21:13;9.73;;;8.77;;
6533;SDS011;3300;42.698;23.332;2023-09-08T08:23:40;9.47;;;8.57;;
6533;SDS011;3300;42.698;23.332;2023-09-08T08:26:07;10.23;;;9.23;;
6533;SDS011;3300;42.698;23.332;2023-09-08T08:28:33;10.23;;;9.13;;
6533;SDS011;3300;42.698;23.332;2023-09-08T08:31:00;10.10;;;9.10;;
6533;SDS011;3300;42.698;23.332;2023-09-08T08:33:27;9.60;;;8.63;;
6533;SDS011;3300;42.698;23.332;2023-09-08T08:35:56;9.57;;;8.67;;
6533;SDS011;3300;42.698;23.332;2023-09-08T08:38:23;10.07;;;8.97;;
6533;SDS011;3300;42.698;23.332;2023-09-08T08:40:49;9.50;;;8.60;;
6533;SDS011;3300;42.698;23.332;2023-09-08T08:43:16;9.70;;;8.77;;
6533;SDS011;3300;42.698;23.332;2023-09-08T08:45:43;9.97;;;8.97;;
6533;SDS011;3300;42.698;23.332;2023-09-08T08:48:12;9.20;;;8.30;;
6533;SDS011;3300;42.698;23.332;2023-09-08T08:50:40;9.60;;;8.60;;
6533;SDS011;3300;42.698;23.332;2023-09-08T08:53:10;9.70;;;8.70;;
6533;SDS011;3300;42.698;23.332;2023-09-08T08:55:38;9.90;;;8.93;;
6533;SDS011;3300;42.698;23.332;2023-09-08T08:58:06;9.70;;;8.80;;
6533;SDS011;3300;42.698;23.332;2023-09-08T09:00:33;10.50;;;9.40;;
6533;SDS011;3300;42.698;23.332;2023-09-08T09:03:04;9.67;;;8.77;;
6533;SDS011;3300;42.698;23.332;2023-09-08T09:05:31;9.70;;;8.70;;
6533;SDS011;3300;42.698;23.332;2023-09-08T09:07:58;9.80;;;8.87;;
6533;SDS011;3300;42.698;23.332;2023-09-08T09:10:30;9.80;;;8.90;;
6533;SDS011;3300;42.698;23.332;2023-09-08T09:12:57;9.90;;;9.00;;
6533;SDS011;3300;42.698;23.332;2023-09-08T09:15:30;9.63;;;8.63;;
6533;SDS011;3300;42.698;23.332;2023-09-08T09:18:03;9.63;;;8.63;;
6533;SDS011;3300;42.698;23.332;2023-09-08T09:20:31;9.40;;;8.50;;
6533;SDS011;3300;42.698;23.332;2023-09-08T09:22:58;9.83;;;8.83;;
6533;SDS011;3300;42.698;23.332;2023-09-08T09:25:27;10.10;;;9.10;;
6533;SDS011;3300;42.698;23.332;2023-09-08T09:27:56;9.83;;;8.83;;
6533;SDS011;3300;42.698;23.332;2023-09-08T09:30:24;9.33;;;8.43;;
6533;SDS011;3300;42.698;23.332;2023-09-08T09:32:58;10.30;;;9.30;;
6533;SDS011;3300;42.698;23.332;2023-09-08T09:35:39;9.90;;;9.00;;
6533;SDS011;3300;42.698;23.332;2023-09-08T09:38:06;9.47;;;8.57;;
6533;SDS011;3300;42.698;23.332;2023-09-08T09:40:33;9.47;;;8.57;;
6533;SDS011;3300;42.698;23.332;2023-09-08T09:43:01;9.53;;;8.63;;
6533;SDS011;3300;42.698;23.332;2023-09-08T09:45:29;9.80;;;8.90;;
6533;SDS011;3300;42.698;23.332;2023-09-08T09:47:56;9.97;;;8.97;;
6533;SDS011;3300;42.698;23.332;2023-09-08T09:50:27;9.20;;;8.30;;
6533;SDS011;3300;42.698;23.332;2023-09-08T09:52:56;9.37;;;8.47;;
6533;SDS011;3300;42.698;23.332;2023-09-08T09:55:24;10.17;;;8.70;;
6533;SDS011;3300;42.698;23.332;2023-09-08T09:57:53;9.40;;;8.50;;
6533;SDS011;3300;42.698;23.332;2023-09-08T10:00:25;10.50;;;9.23;;
6533;SDS011;3300;42.698;23.332;2023-09-08T10:02:53;9.33;;;8.43;;
6533;SDS011;3300;42.698;23.332;2023-09-08T10:05:20;9.50;;;8.47;;
6533;SDS011;3300;42.698;23.332;2023-09-08T10:07:47;9.23;;;8.33;;
6533;SDS011;3300;42.698;23.332;2023-09-08T10:10:14;10.37;;;9.37;;
6533;SDS011;3300;42.698;23.332;2023-09-08T10:12:42;10.43;;;9.40;;
6533;SDS011;3300;42.698;23.332;2023-09-08T10:15:10;10.03;;;9.00;;
6533;SDS011;3300;42.698;23.332;2023-09-08T10:17:39;9.90;;;8.67;;
6533;SDS011;3300;42.698;23.332;2023-09-08T10:20:08;10.20;;;9.20;;
6533;SDS011;3300;42.698;23.332;2023-09-08T10:22:38;9.90;;;8.90;;
6533;SDS011;3300;42.698;23.332;2023-09-08T10:25:06;10.03;;;9.03;;
6533;SDS011;3300;42.698;23.332;2023-09-08T10:27:34;8.97;;;8.03;;
6533;SDS011;3300;42.698;23.332;2023-09-08T10:30:03;9.40;;;8.50;;
6533;SDS011;3300;42.698;23.332;2023-09-08T10:32:31;9.27;;;8.37;;
6533;SDS011;3300;42.698;23.332;2023-09-08T10:35:01;9.57;;;8.67;;
6533;SDS011;3300;42.698;23.332;2023-09-08T10:37:29;10.37;;;8.87;;
6533;SDS011;3300;42.698;23.332;2023-09-08T10:40:01;9.67;;;8.73;;
6533;SDS011;3300;42.698;23.332;2023-09-08T10:42:47;9.17;;;8.27;;
6533;SDS011;3300;42.698;23.332;2023-09-08T10:45:14;9.40;;;8.50;;
6533;SDS011;3300;42.698;23.332;2023-09-08T10:47:54;9.17;;;8.27;;
6533;SDS011;3300;42.698;23.332;2023-09-08T10:50:29;9.50;;;8.50;;
6533;SDS011;3300;42.698;23.332;2023-09-08T10:53:04;9.40;;;8.50;;
6533;SDS011;3300;42.698;23.332;2023-09-08T10:55:36;9.70;;;8.70;;
6533;SDS011;3300;42.698;23.332;2023-09-08T10:58:08;9.50;;;8.60;;
6533;SDS011;3300;42.698;23.332;2023-09-08T11:00:45;9.80;;;8.80;;
6533;SDS011;3300;42.698;23.332;2023-09-08T11:03:13;9.93;;;9.03;;
6533;SDS011;3300;42.698;23.332;2023-09-08T11:05:53;9.40;;;8.50;;
6533;SDS011;3300;42.698;23.332;2023-09-08T11:08:20;10.37;;;8.27;;
6533;SDS011;3300;42.698;23.332;2023-09-08T11:10:47;9.20;;;8.30;;
6533;SDS011;3300;42.698;23.332;2023-09-08T11:13:16;9.27;;;8.37;;
6533;SDS011;3300;42.698;23.332;2023-09-08T11:15:42;9.40;;;8.50;;
6533;SDS011;3300;42.698;23.332;2023-09-08T11:18:09;9.30;;;8.40;;
6533;SDS011;3300;42.698;23.332;2023-09-08T11:20:36;9.73;;;8.73;;
6533;SDS011;3300;42.698;23.332;2023-09-08T11:23:05;9.57;;;8.67;;
6533;SDS011;3300;42.698;23.332;2023-09-08T11:25:32;9.33;;;8.43;;
6533;SDS011;3300;42.698;23.332;2023-09-08T11:27:59;9.37;;;8.47;;
6533;SDS011;3300;42.698;23.332;2023-09-08T11:30:27;9.00;;;8.10;;
6533;SDS011;3300;42.698;23.332;2023-09-08T11:32:54;9.50;;;8.60;;
6533;SDS011;3300;42.698;23.332;2023-09-08T11:35:25;9.30;;;8.40;;
6533;SDS011;3300;42.698;23.332;2023-09-08T11:37:53;9.70;;;8.70;;
6533;SDS011;3300;42.698;23.332;2023-09-08T11:40:27;8.90;;;8.00;;
6533;SDS011;3300;42.698;23.332;2023-09-08T11:42:54;9.27;;;8.37;;
6533;SDS011;3300;42.698;23.332;2023-09-08T11:45:21;9.10;;;8.20;;
6533;SDS011;3300;42.698;23.332;2023-09-08T11:47:49;9.43;;;8.47;;
6533;SDS011;3300;42.698;23.332;2023-09-08T11:50:16;9.23;;;8.20;;
6533;SDS011;3300;42.698;23.332;2023-09-08T11:52:45;9.20;;;8.30;;
6533;SDS011;3300;42.698;23.332;2023-09-08T11:55:13;9.50;;;8.50;;
6533;SDS011;3300;42.698;23.332;2023-09-08T11:57:43;9.07;;;8.17;;
6533;SDS011;3300;42.698;23.332;2023-09-08T12:00:12;9.10;;;8.20;;
6533;SDS011;3300;42.698;23.332;2023-09-08T12:02:42;9.87;;;8.87;;
6533;SDS011;3300;42.698;23.332;2023-09-08T12:05:13;9.47;;;8.57;;
6533;SDS011;3300;42.698;23.332;2023-09-08T12:07:46;9.30;;;8.40;;
6533;SDS011;3300;42.698;23.332;2023-09-08T12:10:13;9.47;;;8.57;;
6533;SDS011;3300;42.698;23.332;2023-09-08T12:12:45;9.40;;;8.40;;
6533;SDS011;3300;42.698;23.332;2023-09-08T12:15:29;9.20;;;8.30;;
6533;SDS011;3300;42.698;23.332;2023-09-08T12:17:57;9.23;;;8.40;;
6533;SDS011;3300;42.698;23.332;2023-09-08T12:20:24;10.07;;;9.07;;
6533;SDS011;3300;42.698;23.332;2023-09-08T12:22:51;9.30;;;8.40;;
6533;SDS011;3300;42.698;23.332;2023-09-08T12:25:18;10.30;;;9.20;;
6533;SDS011;3300;42.698;23.332;2023-09-08T12:27:49;9.10;;;8.20;;
6533;SDS011;3300;42.698;23.332;2023-09-08T12:30:16;9.33;;;8.43;;
6533;SDS011;3300;42.698;23.332;2023-09-08T12:32:45;8.83;;;8.03;;
6533;SDS011;3300;42.698;23.332;2023-09-08T12:35:18;8.87;;;7.97;;
6533;SDS011;3300;42.698;23.332;2023-09-08T12:37:52;9.43;;;8.53;;
6533;SDS011;3300;42.698;23.332;2023-09-08T12:40:20;9.50;;;8.60;;
6533;SDS011;3300;42.698;23.332;2023-09-08T12:42:48;8.70;;;7.90;;
6533;SDS011;3300;42.698;23.332;2023-09-08T12:45:15;9.23;;;8.33;;
6533;SDS011;3300;42.698;23.332;2023-09-08T12:47:42;9.10;;;8.20;;
6533;SDS011;3300;42.698;23.332;2023-09-08T12:50:09;9.20;;;8.27;;
6533;SDS011;3300;42.698;23.332;2023-09-08T12:52:38;9.80;;;8.90;;
6533;SDS011;3300;42.698;23.332;2023-09-08T12:55:05;9.50;;;8.60;;
6533;SDS011;3300;42.698;23.332;2023-09-08T12:57:32;9.10;;;8.20;;
6533;SDS011;3300;42.698;23.332;2023-09-08T13:00:00;9.00;;;8.20;;
6533;SDS011;3300;42.698;23.332;2023-09-08T13:02:27;9.43;;;8.53;;
6533;SDS011;3300;42.698;23.332;2023-09-08T13:04:53;8.63;;;7.83;;
6533;SDS011;3300;42.698;23.332;2023-09-08T13:07:20;9.13;;;8.27;;
6533;SDS011;3300;42.698;23.332;2023-09-08T13:09:47;8.90;;;8.00;;
6533;SDS011;3300;42.698;23.332;2023-09-08T13:12:14;9.07;;;8.17;;
6533;SDS011;3300;42.698;23.332;2023-09-08T13:14:40;9.67;;;8.77;;
6533;SDS011;3300;42.698;23.332;2023-09-08T13:17:09;9.00;;;8.10;;
6533;SDS011;3300;42.698;23.332;2023-09-08T13:19:36;9.10;;;8.20;;
6533;SDS011;3300;42.698;23.332;2023-09-08T13:22:03;9.20;;;8.33;;
6533;SDS011;3300;42.698;23.332;2023-09-08T13:24:30;8.90;;;8.00;;
6533;SDS011;3300;42.698;23.332;2023-09-08T13:26:57;8.77;;;7.97;;
6533;SDS011;3300;42.698;23.332;2023-09-08T13:29:24;9.10;;;8.20;;
6533;SDS011;3300;42.698;23.332;2023-09-08T13:31:52;9.70;;;8.80;;
6533;SDS011;3300;42.698;23.332;2023-09-08T13:34:21;8.60;;;7.80;;
6533;SDS011;3300;42.698;23.332;2023-09-08T13:36:47;8.87;;;8.00;;
6533;SDS011;3300;42.698;23.332;2023-09-08T13:39:14;9.00;;;8.17;;
6533;SDS011;3300;42.698;23.332;2023-09-08T13:41:45;9.00;;;8.10;;
6533;SDS011;3300;42.698;23.332;2023-09-08T13:44:13;8.80;;;8.00;;
6533;SDS011;3300;42.698;23.332;2023-09-08T13:46:39;9.23;;;8.33;;
6533;SDS011;3300;42.698;23.332;2023-09-08T13:49:06;8.93;;;8.13;;
6533;SDS011;3300;42.698;23.332;2023-09-08T13:51:34;8.70;;;7.90;;
6533;SDS011;3300;42.698;23.332;2023-09-08T13:54:01;9.20;;;8.30;;
6533;SDS011;3300;42.698;23.332;2023-09-08T13:56:28;9.07;;;8.17;;
6533;SDS011;3300;42.698;23.332;2023-09-08T13:58:54;9.30;;;8.40;;
6533;SDS011;3300;42.698;23.332;2023-09-08T14:01:21;9.33;;;8.43;;
6533;SDS011;3300;42.698;23.332;2023-09-08T14:03:48;9.17;;;8.27;;
6533;SDS011;3300;42.698;23.332;2023-09-08T14:06:17;8.97;;;8.10;;
6533;SDS011;3300;42.698;23.332;2023-09-08T14:08:45;8.90;;;8.03;;
6533;SDS011;3300;42.698;23.332;2023-09-08T14:11:11;8.43;;;7.63;;
6533;SDS011;3300;42.698;23.332;2023-09-08T14:13:38;9.10;;;8.20;;
6533;SDS011;3300;42.698;23.332;2023-09-08T14:16:05;8.70;;;7.90;;
6533;SDS011;3300;42.698;23.332;2023-09-08T14:18:33;8.70;;;7.90;;
6533;SDS011;3300;42.698;23.332;2023-09-08T14:21:00;8.43;;;7.63;;
6533;SDS011;3300;42.698;23.332;2023-09-08T14:23:27;8.90;;;8.00;;
6533;SDS011;3300;42.698;23.332;2023-09-08T14:25:56;9.17;;;8.27;;
6533;SDS011;3300;42.698;23.332;2023-09-08T14:28:23;9.40;;;8.50;;
6533;SDS011;3300;42.698;23.332;2023-09-08T14:30:51;9.10;;;8.20;;
6533;SDS011;3300;42.698;23.332;2023-09-08T14:33:18;9.87;;;8.87;;
6533;SDS011;3300;42.698;23.332;2023-09-08T14:35:45;9.20;;;8.30;;
6533;SDS011;3300;42.698;23.332;2023-09-08T14:38:16;9.30;;;8.40;;
6533;SDS011;3300;42.698;23.332;2023-09-08T14:40:43;9.13;;;8.23;;
6533;SDS011;3300;42.698;23.332;2023-09-08T14:43:11;9.20;;;8.30;;
6533;SDS011;3300;42.698;23.332;2023-09-08T14:45:38;9.37;;;8.47;;
6533;SDS011;3300;42.698;23.332;2023-09-08T14:48:04;9.90;;;8.90;;
6533;SDS011;3300;42.698;23.332;2023-09-08T14:50:32;9.97;;;8.90;;
6533;SDS011;3300;42.698;23.332;2023-09-08T14:52:58;9.50;;;8.60;;
6533;SDS011;3300;42.698;23.332;2023-09-08T14:55:25;9.50;;;8.60;;
6533;SDS011;3300;42.698;23.332;2023-09-08T14:57:52;9.53;;;8.63;;
6533;SDS011;3300;42.698;23.332;2023-09-08T15:00:20;9.73;;;8.83;;